sensor_id;sensor_type;location;lat;lon;timestamp;P1;durP1;ratioP1;P2;durP2;ratioP2
9815;SDS011;4947;44.526;11.360;2023-03-01T00:01:15;21.25;;;11.82;;
9815;SDS011;4947;44.526;11.360;2023-03-01T00:03:46;22.20;;;12.60;;
9815;SDS011;4947;44.526;11.360;2023-03-01T00:06:14;21.85;;;12.43;;
9815;SDS011;4947;44.526;11.360;2023-03-01T00:08:42;23.90;;;11.52;;
9815;SDS011;4947;44.526;11.360;2023-03-01T00:11:12;22.23;;;12.27;;
9815;SDS011;4947;44.526;11.360;2023-03-01T00:13:41;20.02;;;11.52;;
9815;SDS011;4947;44.526;11.360;2023-03-01T00:16:10;22.73;;;12.30;;
9815;SDS011;4947;44.526;11.360;2023-03-01T00:18:39;26.30;;;12.03;;
9815;SDS011;4947;44.526;11.360;2023-03-01T00:21:09;31.48;;;13.50;;
9815;SDS011;4947;44.526;11.360;2023-03-01T00:23:37;23.00;;;12.17;;
9815;SDS011;4947;44.526;11.360;2023-03-01T00:26:08;20.83;;;11.52;;
9815;SDS011;4947;44.526;11.360;2023-03-01T00:28:37;20.20;;;12.40;;
9815;SDS011;4947;44.526;11.360;2023-03-01T00:31:06;20.20;;;10.90;;
9815;SDS011;4947;44.526;11.360;2023-03-01T00:33:34;30.83;;;13.40;;
9815;SDS011;4947;44.526;11.360;2023-03-01T00:36:03;21.75;;;11.73;;
9815;SDS011;4947;44.526;11.360;2023-03-01T00:38:35;22.57;;;11.63;;
9815;SDS011;4947;44.526;11.360;2023-03-01T00:41:04;21.53;;;11.33;;
9815;SDS011;4947;44.526;11.360;2023-03-01T00:43:31;21.87;;;12.03;;
9815;SDS011;4947;44.526;11.360;2023-03-01T00:46:01;19.77;;;11.27;;
9815;SDS011;4947;44.526;11.360;2023-03-01T00:48:30;19.53;;;12.23;;
9815;SDS011;4947;44.526;11.360;2023-03-01T00:51:00;23.10;;;12.20;;
9815;SDS011;4947;44.526;11.360;2023-03-01T00:53:32;19.45;;;11.40;;
9815;SDS011;4947;44.526;11.360;2023-03-01T00:56:01;21.17;;;11.88;;
9815;SDS011;4947;44.526;11.360;2023-03-01T00:58:29;19.33;;;10.90;;
9815;SDS011;4947;44.526;11.360;2023-03-01T01:00:57;24.10;;;12.40;;
9815;SDS011;4947;44.526;11.360;2023-03-01T01:03:24;20.20;;;11.40;;
9815;SDS011;4947;44.526;11.360;2023-03-01T01:05:53;20.67;;;11.90;;
9815;SDS011;4947;44.526;11.360;2023-03-01T01:08:20;19.17;;;11.93;;
9815;SDS011;4947;44.526;11.360;2023-03-01T01:10:48;19.43;;;12.10;;
9815;SDS011;4947;44.526;11.360;2023-03-01T01:13:17;21.17;;;11.27;;
9815;SDS011;4947;44.526;11.360;2023-03-01T01:15:45;23.85;;;12.05;;
9815;SDS011;4947;44.526;11.360;2023-03-01T01:18:13;18.95;;;10.98;;
9815;SDS011;4947;44.526;11.360;2023-03-01T01:20:41;22.43;;;12.47;;
9815;SDS011;4947;44.526;11.360;2023-03-01T01:23:09;20.73;;;11.90;;
9815;SDS011;4947;44.526;11.360;2023-03-01T01:25:37;19.30;;;11.07;;
9815;SDS011;4947;44.526;11.360;2023-03-01T01:28:05;19.97;;;10.93;;
9815;SDS011;4947;44.526;11.360;2023-03-01T01:30:33;18.60;;;12.13;;
9815;SDS011;4947;44.526;11.360;2023-03-01T01:33:02;22.73;;;12.07;;
9815;SDS011;4947;44.526;11.360;2023-03-01T01:35:30;19.10;;;10.53;;
9815;SDS011;4947;44.526;11.360;2023-03-01T01:37:58;19.07;;;10.90;;
9815;SDS011;4947;44.526;11.360;2023-03-01T01:40:25;21.05;;;11.65;;
9815;SDS011;4947;44.526;11.360;2023-03-01T01:42:53;16.40;;;11.03;;
9815;SDS011;4947;44.526;11.360;2023-03-01T01:45:26;19.20;;;11.17;;
9815;SDS011;4947;44.526;11.360;2023-03-01T01:48:02;18.33;;;11.47;;
9815;SDS011;4947;44.526;11.360;2023-03-01T01:50:34;19.30;;;11.23;;
9815;SDS011;4947;44.526;11.360;2023-03-01T01:53:07;19.73;;;11.63;;
9815;SDS011;4947;44.526;11.360;2023-03-01T01:55:38;18.60;;;11.07;;
9815;SDS011;4947;44.526;11.360;2023-03-01T01:58:09;15.33;;;10.73;;
9815;SDS011;4947;44.526;11.360;2023-03-01T02:00:44;19.57;;;12.07;;
9815;SDS011;4947;44.526;11.360;2023-03-01T02:03:13;22.00;;;11.17;;
9815;SDS011;4947;44.526;11.360;2023-03-01T02:05:45;20.37;;;12.03;;
9815;SDS011;4947;44.526;11.360;2023-03-01T02:08:18;25.27;;;12.17;;
9815;SDS011;4947;44.526;11.360;2023-03-01T02:10:48;20.50;;;11.50;;
9815;SDS011;4947;44.526;11.360;2023-03-01T02:13:16;19.43;;;11.90;;
9815;SDS011;4947;44.526;11.360;2023-03-01T02:15:46;20.33;;;10.63;;
9815;SDS011;4947;44.526;11.360;2023-03-01T02:18:14;21.60;;;11.60;;
9815;SDS011;4947;44.526;11.360;2023-03-01T02:20:48;20.97;;;12.47;;
9815;SDS011;4947;44.526;11.360;2023-03-01T02:23:32;19.07;;;11.53;;
9815;SDS011;4947;44.526;11.360;2023-03-01T02:26:03;19.67;;;10.50;;
9815;SDS011;4947;44.526;11.360;2023-03-01T02:28:36;19.23;;;11.27;;
9815;SDS011;4947;44.526;11.360;2023-03-01T02:31:07;18.47;;;11.70;;
9815;SDS011;4947;44.526;11.360;2023-03-01T02:33:53;18.75;;;10.70;;
9815;SDS011;4947;44.526;11.360;2023-03-01T02:36:21;22.40;;;11.93;;
9815;SDS011;4947;44.526;11.360;2023-03-01T02:38:53;20.67;;;11.07;;
9815;SDS011;4947;44.526;11.360;2023-03-01T02:41:23;20.07;;;11.73;;
9815;SDS011;4947;44.526;11.360;2023-03-01T02:43:54;21.63;;;11.63;;
9815;SDS011;4947;44.526;11.360;2023-03-01T02:46:27;23.53;;;12.13;;
9815;SDS011;4947;44.526;11.360;2023-03-01T02:48:56;20.27;;;9.97;;
9815;SDS011;4947;44.526;11.360;2023-03-01T02:51:38;23.30;;;11.70;;
9815;SDS011;4947;44.526;11.360;2023-03-01T02:54:15;15.63;;;10.33;;
9815;SDS011;4947;44.526;11.360;2023-03-01T02:56:49;16.10;;;11.23;;
9815;SDS011;4947;44.526;11.360;2023-03-01T02:59:19;19.77;;;11.00;;
9815;SDS011;4947;44.526;11.360;2023-03-01T03:01:48;21.47;;;10.97;;
9815;SDS011;4947;44.526;11.360;2023-03-01T03:04:17;19.10;;;10.90;;
9815;SDS011;4947;44.526;11.360;2023-03-01T03:06:46;17.37;;;11.37;;
9815;SDS011;4947;44.526;11.360;2023-03-01T03:09:14;21.10;;;10.67;;
9815;SDS011;4947;44.526;11.360;2023-03-01T03:11:43;17.33;;;11.10;;
9815;SDS011;4947;44.526;11.360;2023-03-01T03:14:12;19.50;;;11.07;;
9815;SDS011;4947;44.526;11.360;2023-03-01T03:16:43;22.37;;;12.67;;
9815;SDS011;4947;44.526;11.360;2023-03-01T03:19:12;19.83;;;12.27;;
9815;SDS011;4947;44.526;11.360;2023-03-01T03:21:40;18.17;;;10.90;;
9815;SDS011;4947;44.526;11.360;2023-03-01T03:24:07;20.27;;;11.63;;
9815;SDS011;4947;44.526;11.360;2023-03-01T03:26:35;24.07;;;11.87;;
9815;SDS011;4947;44.526;11.360;2023-03-01T03:29:03;21.13;;;11.43;;
9815;SDS011;4947;44.526;11.360;2023-03-01T03:31:31;19.73;;;12.37;;
9815;SDS011;4947;44.526;11.360;2023-03-01T03:34:00;21.90;;;10.73;;
9815;SDS011;4947;44.526;11.360;2023-03-01T03:36:31;24.80;;;13.97;;
9815;SDS011;4947;44.526;11.360;2023-03-01T03:38:59;22.50;;;12.20;;
9815;SDS011;4947;44.526;11.360;2023-03-01T03:41:27;22.20;;;11.80;;
9815;SDS011;4947;44.526;11.360;2023-03-01T03:46:25;22.37;;;12.50;;
9815;SDS011;4947;44.526;11.360;2023-03-01T03:48:53;19.53;;;11.73;;
9815;SDS011;4947;44.526;11.360;2023-03-01T03:51:22;20.63;;;11.33;;
9815;SDS011;4947;44.526;11.360;2023-03-01T03:53:50;18.63;;;11.00;;
9815;SDS011;4947;44.526;11.360;2023-03-01T03:56:18;26.87;;;12.73;;
9815;SDS011;4947;44.526;11.360;2023-03-01T03:58:45;20.00;;;12.03;;
9815;SDS011;4947;44.526;11.360;2023-03-01T04:01:13;22.67;;;12.67;;
9815;SDS011;4947;44.526;11.360;2023-03-01T04:03:41;17.47;;;11.40;;
9815;SDS011;4947;44.526;11.360;2023-03-01T04:06:11;18.93;;;12.20;;
9815;SDS011;4947;44.526;11.360;2023-03-01T04:08:41;21.40;;;13.40;;
9815;SDS011;4947;44.526;11.360;2023-03-01T04:11:08;19.80;;;11.37;;
9815;SDS011;4947;44.526;11.360;2023-03-01T04:13:50;21.30;;;12.83;;
9815;SDS011;4947;44.526;11.360;2023-03-01T04:16:43;21.67;;;12.07;;
9815;SDS011;4947;44.526;11.360;2023-03-01T04:19:11;22.10;;;12.23;;
9815;SDS011;4947;44.526;11.360;2023-03-01T04:21:40;24.43;;;13.43;;
9815;SDS011;4947;44.526;11.360;2023-03-01T04:24:09;21.13;;;12.43;;
9815;SDS011;4947;44.526;11.360;2023-03-01T04:26:37;24.13;;;11.90;;
9815;SDS011;4947;44.526;11.360;2023-03-01T04:29:04;21.03;;;12.57;;
9815;SDS011;4947;44.526;11.360;2023-03-01T04:31:32;23.33;;;12.77;;
9815;SDS011;4947;44.526;11.360;2023-03-01T04:33:59;20.80;;;12.10;;
9815;SDS011;4947;44.526;11.360;2023-03-01T04:36:27;22.17;;;12.40;;
9815;SDS011;4947;44.526;11.360;2023-03-01T04:38:55;17.67;;;10.73;;
9815;SDS011;4947;44.526;11.360;2023-03-01T04:41:25;20.53;;;12.57;;
9815;SDS011;4947;44.526;11.360;2023-03-01T04:43:52;27.83;;;12.53;;
9815;SDS011;4947;44.526;11.360;2023-03-01T04:46:20;22.37;;;11.43;;
9815;SDS011;4947;44.526;11.360;2023-03-01T04:48:48;20.67;;;12.33;;
9815;SDS011;4947;44.526;11.360;2023-03-01T04:51:16;22.73;;;13.70;;
9815;SDS011;4947;44.526;11.360;2023-03-01T04:53:44;20.97;;;13.37;;
9815;SDS011;4947;44.526;11.360;2023-03-01T04:56:12;18.13;;;12.70;;
9815;SDS011;4947;44.526;11.360;2023-03-01T04:58:42;24.43;;;12.60;;
9815;SDS011;4947;44.526;11.360;2023-03-01T05:01:09;22.40;;;12.83;;
9815;SDS011;4947;44.526;11.360;2023-03-01T05:03:42;23.30;;;12.77;;
9815;SDS011;4947;44.526;11.360;2023-03-01T05:06:10;25.23;;;12.97;;
9815;SDS011;4947;44.526;11.360;2023-03-01T05:08:38;21.30;;;12.60;;
9815;SDS011;4947;44.526;11.360;2023-03-01T05:11:06;23.33;;;12.77;;
9815;SDS011;4947;44.526;11.360;2023-03-01T05:13:34;25.27;;;13.53;;
9815;SDS011;4947;44.526;11.360;2023-03-01T05:16:05;24.60;;;13.90;;
9815;SDS011;4947;44.526;11.360;2023-03-01T05:18:36;24.07;;;13.03;;
9815;SDS011;4947;44.526;11.360;2023-03-01T05:21:05;26.67;;;13.07;;
9815;SDS011;4947;44.526;11.360;2023-03-01T05:23:34;23.60;;;13.97;;
9815;SDS011;4947;44.526;11.360;2023-03-01T05:26:02;25.43;;;13.73;;
9815;SDS011;4947;44.526;11.360;2023-03-01T05:28:31;25.77;;;14.33;;
9815;SDS011;4947;44.526;11.360;2023-03-01T05:31:00;27.37;;;14.90;;
9815;SDS011;4947;44.526;11.360;2023-03-01T05:33:29;23.43;;;12.87;;
9815;SDS011;4947;44.526;11.360;2023-03-01T05:35:59;20.77;;;13.30;;
9815;SDS011;4947;44.526;11.360;2023-03-01T05:38:26;24.53;;;14.53;;
9815;SDS011;4947;44.526;11.360;2023-03-01T05:40:54;25.10;;;14.33;;
9815;SDS011;4947;44.526;11.360;2023-03-01T05:43:22;24.83;;;14.23;;
9815;SDS011;4947;44.526;11.360;2023-03-01T05:45:50;26.70;;;14.77;;
9815;SDS011;4947;44.526;11.360;2023-03-01T05:48:17;25.37;;;14.27;;
9815;SDS011;4947;44.526;11.360;2023-03-01T05:50:47;25.10;;;14.07;;
9815;SDS011;4947;44.526;11.360;2023-03-01T05:53:15;27.07;;;14.73;;
9815;SDS011;4947;44.526;11.360;2023-03-01T05:55:44;26.83;;;14.13;;
9815;SDS011;4947;44.526;11.360;2023-03-01T05:58:13;24.90;;;14.17;;
9815;SDS011;4947;44.526;11.360;2023-03-01T06:00:44;26.03;;;13.17;;
9815;SDS011;4947;44.526;11.360;2023-03-01T06:03:13;25.03;;;13.50;;
9815;SDS011;4947;44.526;11.360;2023-03-01T06:05:42;29.80;;;15.07;;
9815;SDS011;4947;44.526;11.360;2023-03-01T06:08:12;20.27;;;13.17;;
9815;SDS011;4947;44.526;11.360;2023-03-01T06:10:40;28.33;;;14.60;;
9815;SDS011;4947;44.526;11.360;2023-03-01T06:13:08;23.57;;;13.90;;
9815;SDS011;4947;44.526;11.360;2023-03-01T06:15:36;21.93;;;13.63;;
9815;SDS011;4947;44.526;11.360;2023-03-01T06:18:04;24.37;;;14.50;;
9815;SDS011;4947;44.526;11.360;2023-03-01T06:20:31;22.83;;;14.23;;
9815;SDS011;4947;44.526;11.360;2023-03-01T06:22:59;27.87;;;15.43;;
9815;SDS011;4947;44.526;11.360;2023-03-01T06:25:31;24.20;;;14.43;;
9815;SDS011;4947;44.526;11.360;2023-03-01T06:27:58;29.30;;;15.20;;
9815;SDS011;4947;44.526;11.360;2023-03-01T06:30:26;29.93;;;15.33;;
9815;SDS011;4947;44.526;11.360;2023-03-01T06:32:54;24.13;;;14.93;;
9815;SDS011;4947;44.526;11.360;2023-03-01T06:35:26;32.10;;;15.80;;
9815;SDS011;4947;44.526;11.360;2023-03-01T06:37:55;25.37;;;15.03;;
9815;SDS011;4947;44.526;11.360;2023-03-01T06:40:23;24.30;;;14.90;;
9815;SDS011;4947;44.526;11.360;2023-03-01T06:42:53;26.30;;;13.60;;
9815;SDS011;4947;44.526;11.360;2023-03-01T06:45:21;26.20;;;15.07;;
9815;SDS011;4947;44.526;11.360;2023-03-01T06:47:48;24.90;;;15.27;;
9815;SDS011;4947;44.526;11.360;2023-03-01T06:50:16;25.00;;;14.43;;
9815;SDS011;4947;44.526;11.360;2023-03-01T06:52:45;25.20;;;14.30;;
9815;SDS011;4947;44.526;11.360;2023-03-01T06:55:13;23.90;;;13.83;;
9815;SDS011;4947;44.526;11.360;2023-03-01T06:57:41;25.23;;;14.17;;
9815;SDS011;4947;44.526;11.360;2023-03-01T07:00:11;22.10;;;13.40;;
9815;SDS011;4947;44.526;11.360;2023-03-01T07:02:43;25.23;;;15.07;;
9815;SDS011;4947;44.526;11.360;2023-03-01T07:05:10;28.70;;;15.00;;
9815;SDS011;4947;44.526;11.360;2023-03-01T07:07:38;28.47;;;14.63;;
9815;SDS011;4947;44.526;11.360;2023-03-01T07:10:07;24.53;;;13.63;;
9815;SDS011;4947;44.526;11.360;2023-03-01T07:12:35;29.47;;;15.57;;
9815;SDS011;4947;44.526;11.360;2023-03-01T07:15:04;26.40;;;15.43;;
9815;SDS011;4947;44.526;11.360;2023-03-01T07:17:36;24.73;;;14.50;;
9815;SDS011;4947;44.526;11.360;2023-03-01T07:20:04;21.77;;;13.47;;
9815;SDS011;4947;44.526;11.360;2023-03-01T07:22:33;24.60;;;14.87;;
9815;SDS011;4947;44.526;11.360;2023-03-01T07:25:01;25.97;;;14.30;;
9815;SDS011;4947;44.526;11.360;2023-03-01T07:27:28;25.30;;;14.13;;
9815;SDS011;4947;44.526;11.360;2023-03-01T07:29:58;27.00;;;15.40;;
9815;SDS011;4947;44.526;11.360;2023-03-01T07:32:26;28.13;;;16.07;;
9815;SDS011;4947;44.526;11.360;2023-03-01T07:34:55;25.03;;;15.40;;
9815;SDS011;4947;44.526;11.360;2023-03-01T07:37:24;30.77;;;16.30;;
9815;SDS011;4947;44.526;11.360;2023-03-01T07:39:52;27.93;;;15.03;;
9815;SDS011;4947;44.526;11.360;2023-03-01T07:42:20;27.07;;;14.93;;
9815;SDS011;4947;44.526;11.360;2023-03-01T07:44:47;30.67;;;15.97;;
9815;SDS011;4947;44.526;11.360;2023-03-01T07:47:15;28.10;;;15.40;;
9815;SDS011;4947;44.526;11.360;2023-03-01T07:49:42;27.83;;;15.47;;
9815;SDS011;4947;44.526;11.360;2023-03-01T07:52:12;35.73;;;18.37;;
9815;SDS011;4947;44.526;11.360;2023-03-01T07:54:42;29.73;;;16.33;;
9815;SDS011;4947;44.526;11.360;2023-03-01T07:57:10;29.13;;;16.67;;
9815;SDS011;4947;44.526;11.360;2023-03-01T07:59:38;32.33;;;17.80;;
9815;SDS011;4947;44.526;11.360;2023-03-01T08:02:06;31.10;;;16.77;;
9815;SDS011;4947;44.526;11.360;2023-03-01T08:04:35;34.63;;;17.97;;
9815;SDS011;4947;44.526;11.360;2023-03-01T08:07:04;33.33;;;18.43;;
9815;SDS011;4947;44.526;11.360;2023-03-01T08:09:35;36.30;;;19.47;;
9815;SDS011;4947;44.526;11.360;2023-03-01T08:12:04;36.80;;;19.00;;
9815;SDS011;4947;44.526;11.360;2023-03-01T08:14:32;36.93;;;20.20;;
9815;SDS011;4947;44.526;11.360;2023-03-01T08:17:00;40.77;;;22.33;;
9815;SDS011;4947;44.526;11.360;2023-03-01T08:19:28;37.47;;;19.67;;
9815;SDS011;4947;44.526;11.360;2023-03-01T08:21:56;37.57;;;20.33;;
9815;SDS011;4947;44.526;11.360;2023-03-01T08:24:25;38.77;;;20.30;;
9815;SDS011;4947;44.526;11.360;2023-03-01T08:26:54;39.80;;;19.93;;
9815;SDS011;4947;44.526;11.360;2023-03-01T08:29:21;41.90;;;21.10;;
9815;SDS011;4947;44.526;11.360;2023-03-01T08:31:49;44.40;;;21.67;;
9815;SDS011;4947;44.526;11.360;2023-03-01T08:34:17;39.33;;;21.50;;
9815;SDS011;4947;44.526;11.360;2023-03-01T08:36:45;40.87;;;19.07;;
9815;SDS011;4947;44.526;11.360;2023-03-01T08:39:19;41.27;;;21.47;;
9815;SDS011;4947;44.526;11.360;2023-03-01T08:41:47;37.53;;;20.73;;
9815;SDS011;4947;44.526;11.360;2023-03-01T08:44:17;51.42;;;29.23;;
9815;SDS011;4947;44.526;11.360;2023-03-01T08:46:45;40.60;;;23.40;;
9815;SDS011;4947;44.526;11.360;2023-03-01T08:49:15;44.80;;;23.50;;
9815;SDS011;4947;44.526;11.360;2023-03-01T08:51:44;49.53;;;25.23;;
9815;SDS011;4947;44.526;11.360;2023-03-01T08:54:14;46.63;;;22.93;;
9815;SDS011;4947;44.526;11.360;2023-03-01T08:56:43;42.03;;;23.73;;
9815;SDS011;4947;44.526;11.360;2023-03-01T08:59:11;43.87;;;21.97;;
9815;SDS011;4947;44.526;11.360;2023-03-01T09:01:41;52.27;;;23.90;;
9815;SDS011;4947;44.526;11.360;2023-03-01T09:04:10;38.60;;;22.33;;
9815;SDS011;4947;44.526;11.360;2023-03-01T09:06:38;41.73;;;23.10;;
9815;SDS011;4947;44.526;11.360;2023-03-01T09:09:06;50.20;;;22.20;;
9815;SDS011;4947;44.526;11.360;2023-03-01T09:11:41;41.07;;;21.73;;
9815;SDS011;4947;44.526;11.360;2023-03-01T09:14:09;41.77;;;21.87;;
9815;SDS011;4947;44.526;11.360;2023-03-01T09:16:38;41.23;;;21.73;;
9815;SDS011;4947;44.526;11.360;2023-03-01T09:19:08;37.20;;;21.23;;
9815;SDS011;4947;44.526;11.360;2023-03-01T09:21:36;44.23;;;23.53;;
9815;SDS011;4947;44.526;11.360;2023-03-01T09:24:06;41.97;;;23.40;;
9815;SDS011;4947;44.526;11.360;2023-03-01T09:26:38;42.23;;;22.87;;
9815;SDS011;4947;44.526;11.360;2023-03-01T09:29:05;42.47;;;20.47;;
9815;SDS011;4947;44.526;11.360;2023-03-01T09:31:34;36.40;;;20.80;;
9815;SDS011;4947;44.526;11.360;2023-03-01T09:34:03;38.60;;;19.83;;
9815;SDS011;4947;44.526;11.360;2023-03-01T09:36:31;34.23;;;19.30;;
9815;SDS011;4947;44.526;11.360;2023-03-01T09:38:59;31.87;;;20.13;;
9815;SDS011;4947;44.526;11.360;2023-03-01T09:41:36;37.87;;;19.83;;
9815;SDS011;4947;44.526;11.360;2023-03-01T09:44:16;32.57;;;17.80;;
9815;SDS011;4947;44.526;11.360;2023-03-01T09:46:50;34.23;;;18.37;;
9815;SDS011;4947;44.526;11.360;2023-03-01T09:49:20;28.03;;;17.47;;
9815;SDS011;4947;44.526;11.360;2023-03-01T09:51:55;37.77;;;19.03;;
9815;SDS011;4947;44.526;11.360;2023-03-01T09:54:26;27.80;;;16.63;;
9815;SDS011;4947;44.526;11.360;2023-03-01T09:56:57;34.00;;;17.37;;
9815;SDS011;4947;44.526;11.360;2023-03-01T09:59:33;30.00;;;17.13;;
9815;SDS011;4947;44.526;11.360;2023-03-01T10:02:21;29.43;;;16.77;;
9815;SDS011;4947;44.526;11.360;2023-03-01T10:04:57;28.57;;;15.47;;
9815;SDS011;4947;44.526;11.360;2023-03-01T10:07:32;30.33;;;16.40;;
9815;SDS011;4947;44.526;11.360;2023-03-01T10:10:14;30.50;;;16.73;;
9815;SDS011;4947;44.526;11.360;2023-03-01T10:12:50;28.27;;;16.43;;
9815;SDS011;4947;44.526;11.360;2023-03-01T10:15:19;33.63;;;17.50;;
9815;SDS011;4947;44.526;11.360;2023-03-01T10:17:56;28.77;;;17.73;;
9815;SDS011;4947;44.526;11.360;2023-03-01T10:20:32;27.47;;;16.63;;
9815;SDS011;4947;44.526;11.360;2023-03-01T10:23:09;24.70;;;15.07;;
9815;SDS011;4947;44.526;11.360;2023-03-01T10:25:42;29.77;;;16.07;;
9815;SDS011;4947;44.526;11.360;2023-03-01T10:28:20;29.70;;;15.73;;
9815;SDS011;4947;44.526;11.360;2023-03-01T10:30:52;34.20;;;16.83;;
9815;SDS011;4947;44.526;11.360;2023-03-01T10:33:21;26.57;;;16.97;;
9815;SDS011;4947;44.526;11.360;2023-03-01T10:35:54;29.80;;;16.13;;
9815;SDS011;4947;44.526;11.360;2023-03-01T10:38:21;28.27;;;15.60;;
9815;SDS011;4947;44.526;11.360;2023-03-01T10:40:51;34.37;;;15.67;;
9815;SDS011;4947;44.526;11.360;2023-03-01T10:43:21;31.60;;;16.53;;
9815;SDS011;4947;44.526;11.360;2023-03-01T10:45:50;27.40;;;14.83;;
9815;SDS011;4947;44.526;11.360;2023-03-01T10:48:19;29.60;;;15.40;;
9815;SDS011;4947;44.526;11.360;2023-03-01T10:50:50;27.80;;;17.43;;
9815;SDS011;4947;44.526;11.360;2023-03-01T10:53:34;28.13;;;15.87;;
9815;SDS011;4947;44.526;11.360;2023-03-01T10:56:04;27.37;;;14.50;;
9815;SDS011;4947;44.526;11.360;2023-03-01T10:58:33;31.47;;;15.90;;
9815;SDS011;4947;44.526;11.360;2023-03-01T11:01:02;28.03;;;15.10;;
9815;SDS011;4947;44.526;11.360;2023-03-01T11:03:31;25.80;;;15.03;;
9815;SDS011;4947;44.526;11.360;2023-03-01T11:06:01;29.23;;;14.73;;
9815;SDS011;4947;44.526;11.360;2023-03-01T11:08:34;24.57;;;14.50;;
9815;SDS011;4947;44.526;11.360;2023-03-01T11:11:04;21.97;;;13.70;;
9815;SDS011;4947;44.526;11.360;2023-03-01T11:13:33;29.50;;;14.00;;
9815;SDS011;4947;44.526;11.360;2023-03-01T11:16:03;25.57;;;13.57;;
9815;SDS011;4947;44.526;11.360;2023-03-01T11:18:33;28.57;;;15.00;;
9815;SDS011;4947;44.526;11.360;2023-03-01T11:21:00;24.17;;;14.20;;
9815;SDS011;4947;44.526;11.360;2023-03-01T11:23:31;19.90;;;13.17;;
9815;SDS011;4947;44.526;11.360;2023-03-01T11:26:05;25.90;;;14.43;;
9815;SDS011;4947;44.526;11.360;2023-03-01T11:28:36;28.90;;;15.03;;
9815;SDS011;4947;44.526;11.360;2023-03-01T11:31:07;27.43;;;14.70;;
9815;SDS011;4947;44.526;11.360;2023-03-01T11:33:39;26.53;;;14.47;;
9815;SDS011;4947;44.526;11.360;2023-03-01T11:36:14;27.87;;;14.60;;
9815;SDS011;4947;44.526;11.360;2023-03-01T11:38:48;24.60;;;14.13;;
9815;SDS011;4947;44.526;11.360;2023-03-01T11:41:17;31.93;;;15.40;;
9815;SDS011;4947;44.526;11.360;2023-03-01T11:43:48;28.77;;;14.23;;
9815;SDS011;4947;44.526;11.360;2023-03-01T11:49:24;24.50;;;13.17;;
9815;SDS011;4947;44.526;11.360;2023-03-01T11:52:08;26.10;;;13.17;;
9815;SDS011;4947;44.526;11.360;2023-03-01T11:54:50;30.87;;;15.80;;
9815;SDS011;4947;44.526;11.360;2023-03-01T11:57:34;29.33;;;14.47;;
9815;SDS011;4947;44.526;11.360;2023-03-01T12:00:17;24.30;;;13.73;;
9815;SDS011;4947;44.526;11.360;2023-03-01T12:02:59;26.17;;;14.10;;
9815;SDS011;4947;44.526;11.360;2023-03-01T12:06:04;26.20;;;14.90;;
9815;SDS011;4947;44.526;11.360;2023-03-01T12:08:40;29.30;;;13.53;;
9815;SDS011;4947;44.526;11.360;2023-03-01T12:11:19;29.70;;;14.60;;
9815;SDS011;4947;44.526;11.360;2023-03-01T12:13:58;31.33;;;14.57;;
9815;SDS011;4947;44.526;11.360;2023-03-01T12:17:07;24.40;;;12.60;;
9815;SDS011;4947;44.526;11.360;2023-03-01T12:23:16;29.20;;;14.70;;
9815;SDS011;4947;44.526;11.360;2023-03-01T12:26:02;25.70;;;14.57;;
9815;SDS011;4947;44.526;11.360;2023-03-01T12:31:41;34.67;;;15.10;;
9815;SDS011;4947;44.526;11.360;2023-03-01T12:34:30;29.00;;;15.23;;
9815;SDS011;4947;44.526;11.360;2023-03-01T12:37:15;25.83;;;14.23;;
9815;SDS011;4947;44.526;11.360;2023-03-01T12:39:59;28.40;;;14.03;;
9815;SDS011;4947;44.526;11.360;2023-03-01T12:42:42;26.17;;;13.77;;
9815;SDS011;4947;44.526;11.360;2023-03-01T12:45:30;25.00;;;15.23;;
9815;SDS011;4947;44.526;11.360;2023-03-01T12:48:09;24.23;;;13.37;;
9815;SDS011;4947;44.526;11.360;2023-03-01T12:50:47;28.60;;;14.57;;
9815;SDS011;4947;44.526;11.360;2023-03-01T12:53:24;27.90;;;14.60;;
9815;SDS011;4947;44.526;11.360;2023-03-01T12:55:55;27.17;;;14.87;;
9815;SDS011;4947;44.526;11.360;2023-03-01T12:58:28;32.03;;;15.90;;
9815;SDS011;4947;44.526;11.360;2023-03-01T13:01:03;26.70;;;15.27;;
9815;SDS011;4947;44.526;11.360;2023-03-01T13:04:00;27.20;;;14.80;;
9815;SDS011;4947;44.526;11.360;2023-03-01T13:06:40;30.07;;;15.57;;
9815;SDS011;4947;44.526;11.360;2023-03-01T13:09:14;38.60;;;16.00;;
9815;SDS011;4947;44.526;11.360;2023-03-01T13:11:50;31.87;;;16.03;;
9815;SDS011;4947;44.526;11.360;2023-03-01T13:17:39;34.27;;;17.10;;
9815;SDS011;4947;44.526;11.360;2023-03-01T13:20:15;27.20;;;15.07;;
9815;SDS011;4947;44.526;11.360;2023-03-01T13:22:44;26.57;;;14.67;;
9815;SDS011;4947;44.526;11.360;2023-03-01T13:25:14;27.07;;;15.47;;
9815;SDS011;4947;44.526;11.360;2023-03-01T13:27:44;34.23;;;16.10;;
9815;SDS011;4947;44.526;11.360;2023-03-01T13:39:30;30.60;;;15.80;;
9815;SDS011;4947;44.526;11.360;2023-03-01T13:42:29;29.07;;;14.73;;
9815;SDS011;4947;44.526;11.360;2023-03-01T13:45:02;26.63;;;16.73;;
9815;SDS011;4947;44.526;11.360;2023-03-01T13:47:32;33.73;;;15.97;;
9815;SDS011;4947;44.526;11.360;2023-03-01T13:50:05;28.83;;;16.50;;
9815;SDS011;4947;44.526;11.360;2023-03-01T13:52:42;27.20;;;15.00;;
9815;SDS011;4947;44.526;11.360;2023-03-01T13:55:15;34.97;;;17.30;;
9815;SDS011;4947;44.526;11.360;2023-03-01T13:57:47;35.87;;;16.83;;
9815;SDS011;4947;44.526;11.360;2023-03-01T14:00:25;31.57;;;16.80;;
9815;SDS011;4947;44.526;11.360;2023-03-01T14:03:02;31.07;;;17.00;;
9815;SDS011;4947;44.526;11.360;2023-03-01T14:05:33;31.07;;;17.97;;
9815;SDS011;4947;44.526;11.360;2023-03-01T14:08:02;33.93;;;17.33;;
9815;SDS011;4947;44.526;11.360;2023-03-01T14:10:31;33.17;;;16.87;;
9815;SDS011;4947;44.526;11.360;2023-03-01T14:13:10;35.43;;;16.93;;
9815;SDS011;4947;44.526;11.360;2023-03-01T14:15:56;32.17;;;17.07;;
9815;SDS011;4947;44.526;11.360;2023-03-01T14:18:40;33.23;;;19.00;;
9815;SDS011;4947;44.526;11.360;2023-03-01T14:21:16;33.03;;;17.97;;
9815;SDS011;4947;44.526;11.360;2023-03-01T14:23:43;36.43;;;17.93;;
9815;SDS011;4947;44.526;11.360;2023-03-01T14:26:11;30.13;;;16.37;;
9815;SDS011;4947;44.526;11.360;2023-03-01T14:28:40;31.93;;;17.33;;
9815;SDS011;4947;44.526;11.360;2023-03-01T14:31:29;32.47;;;18.03;;
9815;SDS011;4947;44.526;11.360;2023-03-01T14:34:00;30.50;;;17.30;;
9815;SDS011;4947;44.526;11.360;2023-03-01T14:36:31;29.03;;;17.23;;
9815;SDS011;4947;44.526;11.360;2023-03-01T14:39:15;33.93;;;16.87;;
9815;SDS011;4947;44.526;11.360;2023-03-01T14:41:48;35.40;;;18.00;;
9815;SDS011;4947;44.526;11.360;2023-03-01T14:44:18;33.53;;;18.10;;
9815;SDS011;4947;44.526;11.360;2023-03-01T14:46:51;29.60;;;17.03;;
9815;SDS011;4947;44.526;11.360;2023-03-01T14:49:20;36.10;;;17.67;;
9815;SDS011;4947;44.526;11.360;2023-03-01T14:51:51;36.47;;;19.30;;
9815;SDS011;4947;44.526;11.360;2023-03-01T14:54:24;31.63;;;17.57;;
9815;SDS011;4947;44.526;11.360;2023-03-01T14:56:57;34.03;;;17.30;;
9815;SDS011;4947;44.526;11.360;2023-03-01T14:59:26;34.23;;;18.23;;
9815;SDS011;4947;44.526;11.360;2023-03-01T15:01:54;39.33;;;19.00;;
9815;SDS011;4947;44.526;11.360;2023-03-01T15:04:24;34.37;;;18.97;;
9815;SDS011;4947;44.526;11.360;2023-03-01T15:06:56;35.27;;;17.77;;
9815;SDS011;4947;44.526;11.360;2023-03-01T15:09:29;32.50;;;19.07;;
9815;SDS011;4947;44.526;11.360;2023-03-01T15:12:03;35.53;;;19.57;;
9815;SDS011;4947;44.526;11.360;2023-03-01T15:15:20;32.33;;;18.73;;
9815;SDS011;4947;44.526;11.360;2023-03-01T15:17:57;37.80;;;19.60;;
9815;SDS011;4947;44.526;11.360;2023-03-01T15:20:26;36.27;;;19.40;;
9815;SDS011;4947;44.526;11.360;2023-03-01T15:22:57;34.53;;;19.00;;